Hauptseite
METAR-TAF:

METAR-TAF

Flughäfen :

Umiujaq, Québec, Kanada

Breite: 56-32N, Länge: 076-31W, Höhe: 71 m

Beobachtung

Neuester Wetterbericht von vor 11 Stunden und 14 Minuten, um 21:00 UTC
Wind 3 kt aus Süd/Südwest, variierte zwischen Süd und West/Südwest
Temperatur 11°C
Luftfeuchtigkeit 58%
Luftdruck 1017 hPa
Sichtweite: 24.1 km
Leicht bewölkt in der Höhe von 4000 ft
Aufgelockert bewölkt in der Höhe von 18000 ft
Aufgelockert bewölkt in der Höhe von 34000 ft

METAR: CYMU 182100Z 21003KT 180V240 15SM FEW040 SCT180 SCT340 11/03 A3003 RMK SC1AC3CI1 SC TR LAST STFD OBS/NEXT 191200Z SLP174

Zeit: 04:14 (08:14 UTC)


TAF: fehlend

Wetterbeobachtungen und Prognosen von mehr als 4000 Flughäfen (METAR und TAF Bericht).

Die verfügbaren Stationen werden durch gelbe und rote Markierungen auf der Karte dargestellt.

Führen Sie die Maus auf sie, um den Namen der Station zu sehen.

Darauf klicken, um die Beobachtung von Wetterbeobachtungen und Prognosen zu sehen.

Um die Karte zu ändern : klicken Sie auf den grünen Tasten mit einem schwarzen Kreuz Zum Vergrößern, auf den grünen Button mit einem Gedankenstrich zu verkleinern, oder auf die grünen Pfeile für benachbarte Karten.


METAR-TAF: